< < Back
Terminal Aerodrome Forecast


Current Version              Previous Versions:   1  2  3  4  5  6  7  8  9  

Terminal Aerodrome Forecast

973
FTUS42 KGSP 300500
TAFAND
TAF
KAND 300525Z 3006/3106 03005KT P6SM FEW060
     FM301700 04004KT P6SM SCT060=



Latest METAR

389
SAUS70 KWBC 310300 RRA
MTRAND
METAR KAND 310256Z AUTO 06003KT 10SM BKN065 BKN090 23/16 A3006 RMK AO2
SLP171 T02330161 51011


USA.gov is the U.S. government's official web portal to all federal, state and local government web resources and services.